createdAt,value
2023-04-14T00:01:23.722Z,95537.34
2023-04-14T00:03:58.048Z,95540.00
2023-04-14T00:06:31.013Z,95538.44
2023-04-14T00:09:04.453Z,95544.53
2023-04-14T00:11:37.314Z,95545.97
2023-04-14T00:14:10.702Z,95536.47
2023-04-14T00:16:44.568Z,95538.66
2023-04-14T00:19:18.686Z,95538.19
2023-04-14T00:21:51.441Z,95541.94
2023-04-14T00:24:24.205Z,95545.56
2023-04-14T00:26:57.347Z,95549.28
2023-04-14T00:29:30.158Z,95545.09
2023-04-14T00:32:02.998Z,95554.13
2023-04-14T00:34:37.497Z,95554.78
2023-04-14T00:37:10.577Z,95546.06
2023-04-14T00:39:43.616Z,95539.19
2023-04-14T00:42:16.865Z,95542.31
2023-04-14T00:44:49.977Z,95541.53
2023-04-14T00:47:24.042Z,95543.84
2023-04-14T00:49:58.229Z,95543.84
2023-04-14T00:52:33.049Z,95543.84
2023-04-14T00:55:06.764Z,95541.97
2023-04-14T00:57:40.172Z,95553.03
2023-04-14T01:00:13.851Z,95544.78
2023-04-14T01:02:46.787Z,95547.91
2023-04-14T01:05:21.560Z,95543.03
2023-04-14T01:07:54.478Z,95548.78
2023-04-14T01:10:29.861Z,95554.88
2023-04-14T01:13:09.698Z,95562.22
2023-04-14T01:15:45.032Z,95567.66
2023-04-14T01:18:23.467Z,95561.25
2023-04-14T01:21:00.548Z,95556.09
2023-04-14T01:23:37.026Z,95560.00
2023-04-14T01:26:28.133Z,95564.34
2023-04-14T01:29:08.999Z,95570.91
2023-04-14T01:31:46.131Z,95568.72
2023-04-14T01:34:22.054Z,95571.16
2023-04-14T01:36:56.685Z,95564.44
2023-04-14T01:39:33.007Z,95570.34
2023-04-14T01:42:07.791Z,95563.63
2023-04-14T01:44:41.650Z,95567.19
2023-04-14T01:47:18.927Z,95571.56
2023-04-14T01:49:53.871Z,95568.56
2023-04-14T01:52:27.835Z,95560.72
2023-04-14T01:55:05.800Z,95560.09
2023-04-14T01:57:39.649Z,95562.88
2023-04-14T02:00:13.705Z,95560.66
2023-04-14T02:02:49.459Z,95556.28
2023-04-14T02:05:23.449Z,95555.97
2023-04-14T02:07:56.721Z,95562.50
2023-04-14T02:10:30.411Z,95560.75
2023-04-14T02:13:04.144Z,95561.66
2023-04-14T02:15:37.125Z,95566.34
2023-04-14T02:18:11.444Z,95565.25
2023-04-14T02:20:45.772Z,95561.47
2023-04-14T02:23:18.500Z,95561.28
2023-04-14T02:25:53.940Z,95564.41
2023-04-14T02:28:33.607Z,95570.94
2023-04-14T02:31:08.786Z,95561.41
2023-04-14T02:33:45.050Z,95559.53
2023-04-14T02:36:19.205Z,95571.38
2023-04-14T02:38:56.688Z,95563.09
2023-04-14T02:41:30.224Z,95564.97
2023-04-14T02:44:05.135Z,95567.31
2023-04-14T02:46:40.590Z,95566.22
2023-04-14T02:49:16.156Z,95570.56
2023-04-14T02:51:49.770Z,95575.06
2023-04-14T02:54:24.182Z,95574.31
2023-04-14T02:56:58.443Z,95567.09
2023-04-14T02:59:32.573Z,95561.78
2023-04-14T03:02:06.389Z,95566.81
2023-04-14T03:04:42.235Z,95572.13
2023-04-14T03:07:16.047Z,95563.06
2023-04-14T03:09:50.704Z,95560.84
2023-04-14T03:12:25.557Z,95555.53
2023-04-14T03:14:59.435Z,95553.97
2023-04-14T03:17:33.784Z,95562.41
2023-04-14T03:20:09.340Z,95552.88
2023-04-14T03:22:44.218Z,95558.97
2023-04-14T03:25:17.007Z,95554.44
2023-04-14T03:27:51.038Z,95554.44
2023-04-14T03:30:25.326Z,95561.63
2023-04-14T03:33:00.773Z,95555.22
2023-04-14T03:35:35.494Z,95558.97
2023-04-14T03:38:09.218Z,95564.63
2023-04-14T03:40:44.351Z,95565.72
2023-04-14T03:43:20.253Z,95571.03
2023-04-14T03:45:52.936Z,95572.13
2023-04-14T03:48:29.902Z,95570.09
2023-04-14T03:51:06.134Z,95577.31
2023-04-14T03:53:40.896Z,95576.38
2023-04-14T03:56:14.527Z,95579.72
2023-04-14T03:58:49.554Z,95574.56
2023-04-14T04:01:26.138Z,95583.97
2023-04-14T04:04:00.956Z,95584.16
2023-04-14T04:06:37.102Z,95583.91
2023-04-14T04:09:12.846Z,95591.25
2023-04-14T04:11:47.608Z,95591.16
2023-04-14T04:14:21.899Z,95589.31
2023-04-14T04:16:56.470Z,95599.03
2023-04-14T04:19:29.894Z,95596.09
2023-04-14T04:22:04.759Z,95594.25
2023-04-14T04:24:40.360Z,95580.69
2023-04-14T04:27:26.690Z,95588.84
2023-04-14T04:30:01.321Z,95581.69
2023-04-14T04:32:34.065Z,95594.38
2023-04-14T04:35:07.418Z,95593.31
2023-04-14T04:37:43.707Z,95601.44
2023-04-14T04:40:16.792Z,95601.94
2023-04-14T04:42:49.567Z,95605.53
2023-04-14T04:45:32.774Z,95609.44
2023-04-14T04:48:05.753Z,95613.38
2023-04-14T04:50:38.587Z,95606.69
2023-04-14T04:53:14.143Z,95617.91
2023-04-14T04:55:46.999Z,95610.91
2023-04-14T04:58:19.786Z,95611.06
2023-04-14T05:00:54.503Z,95618.41
2023-04-14T05:03:27.794Z,95614.81
2023-04-14T05:06:00.629Z,95615.47
2023-04-14T05:08:35.014Z,95619.81
2023-04-14T05:11:07.745Z,95615.47
2023-04-14T05:13:40.513Z,95608.91
2023-04-14T05:16:14.789Z,95620.13
2023-04-14T05:18:47.535Z,95624.97
2023-04-14T05:21:20.449Z,95625.59
2023-04-14T05:23:54.693Z,95620.13
2023-04-14T05:26:48.994Z,95628.06
2023-04-14T05:29:20.360Z,95627.31
2023-04-14T05:31:52.993Z,95630.72
2023-04-14T05:34:25.720Z,95631.84
2023-04-14T05:36:58.373Z,95637.59
2023-04-14T05:39:33.127Z,95640.41
2023-04-14T05:42:06.122Z,95642.75
2023-04-14T05:44:39.316Z,95635.44
2023-04-14T05:47:12.001Z,95641.50
2023-04-14T05:49:45.120Z,95642.59
2023-04-14T05:52:18.027Z,95648.38
2023-04-14T05:54:52.190Z,95645.88
2023-04-14T05:57:24.894Z,95647.84
2023-04-14T05:59:58.415Z,95651.13
2023-04-14T06:02:31.301Z,95646.38
2023-04-14T06:05:06.968Z,95650.88
2023-04-14T06:07:42.062Z,95658.44
2023-04-14T06:10:16.409Z,95655.56
2023-04-14T06:12:49.234Z,95666.13
2023-04-14T06:15:21.909Z,95657.16
2023-04-14T06:17:54.746Z,95664.13
2023-04-14T06:20:27.444Z,95656.69
2023-04-14T06:23:00.971Z,95663.63
2023-04-14T06:25:35.355Z,95657.25
2023-04-14T06:28:08.185Z,95653.88
2023-04-14T06:30:41.283Z,95653.94
2023-04-14T06:33:13.954Z,95656.31
2023-04-14T06:35:46.905Z,95654.78
2023-04-14T06:38:20.400Z,95651.72
2023-04-14T06:40:54.674Z,95648.28
2023-04-14T06:43:28.962Z,95644.09
2023-04-14T06:46:01.897Z,95646.34
2023-04-14T06:48:34.577Z,95636.81
2023-04-14T06:51:10.603Z,95638.69
2023-04-14T06:53:43.757Z,95637.13
2023-04-14T06:56:17.836Z,95638.66
2023-04-14T06:58:50.591Z,95635.25
2023-04-14T07:01:23.936Z,95636.81
2023-04-14T07:03:56.969Z,95636.44
2023-04-14T07:06:29.655Z,95640.28
2023-04-14T07:09:02.359Z,95625.69
2023-04-14T07:11:36.433Z,95639.09
2023-04-14T07:14:09.098Z,95632.16
2023-04-14T07:16:41.727Z,95631.66
2023-04-14T07:19:14.512Z,95623.16
2023-04-14T07:21:47.265Z,95626.34
2023-04-14T07:24:20.111Z,95623.41
2023-04-14T07:26:54.270Z,95624.28
2023-04-14T07:29:27.426Z,95622.50
2023-04-14T07:32:00.384Z,95621.47
2023-04-14T07:34:33.936Z,95623.19
2023-04-14T07:37:06.750Z,95618.34
2023-04-14T07:39:39.818Z,95614.31
2023-04-14T07:42:13.899Z,95613.38
2023-04-14T07:44:46.872Z,95615.47
2023-04-14T07:47:19.579Z,95604.59
2023-04-14T07:49:53.198Z,95605.97
2023-04-14T07:52:25.983Z,95608.44
2023-04-14T07:54:58.682Z,95603.25
2023-04-14T07:57:34.312Z,95603.50
2023-04-14T08:00:09.668Z,95596.03
2023-04-14T08:02:42.469Z,95603.09
2023-04-14T08:05:15.297Z,95606.00
2023-04-14T08:07:49.571Z,95599.69
2023-04-14T08:10:22.427Z,95606.78
2023-04-14T08:12:56.561Z,95602.41
2023-04-14T08:15:29.339Z,95601.50
2023-04-14T08:18:02.105Z,95592.94
2023-04-14T08:20:34.852Z,95604.72
2023-04-14T08:23:07.450Z,95603.88
2023-04-14T08:25:40.153Z,95605.66
2023-04-14T08:28:14.245Z,95602.06
2023-04-14T08:30:47.771Z,95603.47
2023-04-14T08:33:20.457Z,95601.34
2023-04-14T08:35:59.331Z,95608.88
2023-04-14T08:38:33.217Z,95603.34
2023-04-14T08:41:08.586Z,95604.03
2023-04-14T08:43:42.625Z,95604.22
2023-04-14T08:46:16.659Z,95608.31
2023-04-14T08:48:50.692Z,95611.94
2023-04-14T08:51:28.381Z,95607.56
2023-04-14T08:54:02.354Z,95600.09
2023-04-14T08:56:35.845Z,95603.31
2023-04-14T08:59:11.409Z,95602.72
2023-04-14T09:01:44.614Z,95595.50
2023-04-14T09:04:17.630Z,95602.09
2023-04-14T09:06:50.454Z,95595.63
2023-04-14T09:09:23.651Z,95599.16
2023-04-14T09:11:56.465Z,95600.75
2023-04-14T09:14:30.540Z,95599.25
2023-04-14T09:17:03.322Z,95592.00
2023-04-14T09:19:35.918Z,95597.44
2023-04-14T09:22:08.753Z,95592.44
2023-04-14T09:24:41.564Z,95589.78
2023-04-14T09:27:14.523Z,95590.19
2023-04-14T09:29:49.444Z,95583.25
2023-04-14T09:32:23.092Z,95585.16
2023-04-14T09:34:57.782Z,95588.22
2023-04-14T09:37:42.436Z,95589.31
2023-04-14T09:40:28.675Z,95589.63
2023-04-14T09:43:02.080Z,95585.72
2023-04-14T09:45:45.915Z,95579.09
2023-04-14T09:48:18.578Z,95589.00
2023-04-14T09:51:01.038Z,95582.03
2023-04-14T09:53:34.399Z,95579.59
2023-04-14T09:56:08.409Z,95582.91
2023-04-14T09:58:42.212Z,95585.88
2023-04-14T10:01:17.919Z,95581.50
2023-04-14T10:03:51.169Z,95580.66
2023-04-14T10:06:24.471Z,95571.34
2023-04-14T10:08:57.539Z,95564.03
2023-04-14T10:11:32.809Z,95557.09
2023-04-14T10:14:06.732Z,95554.41
2023-04-14T10:16:41.542Z,95547.91
2023-04-14T10:19:14.751Z,95542.16
2023-04-14T10:21:47.444Z,95539.09
2023-04-14T10:24:21.248Z,95542.66
2023-04-14T10:26:54.608Z,95542.72
2023-04-14T10:29:27.798Z,95540.50
2023-04-14T10:32:05.430Z,95542.47
2023-04-14T10:34:40.544Z,95544.13
2023-04-14T10:37:15.086Z,95538.09
2023-04-14T10:39:55.185Z,95535.50
2023-04-14T10:42:30.976Z,95527.88
2023-04-14T10:45:06.095Z,95522.19
2023-04-14T10:47:42.569Z,95514.53
2023-04-14T10:50:18.131Z,95516.16
2023-04-14T10:52:52.135Z,95513.91
2023-04-14T10:55:26.057Z,95517.06
2023-04-14T10:58:04.797Z,95512.50
2023-04-14T11:00:39.038Z,95499.88
2023-04-14T11:03:13.935Z,95501.81
2023-04-14T11:05:49.360Z,95494.53
2023-04-14T11:08:26.411Z,95490.72
2023-04-14T11:11:02.871Z,95488.06
2023-04-14T11:13:38.341Z,95483.44
2023-04-14T11:16:11.385Z,95488.06
2023-04-14T11:18:46.522Z,95475.31
2023-04-14T11:21:19.222Z,95483.44
2023-04-14T11:23:52.020Z,95475.72
2023-04-14T11:26:24.935Z,95467.63
2023-04-14T11:28:57.840Z,95481.91
2023-04-14T11:31:31.428Z,95469.19
2023-04-14T11:34:07.077Z,95466.47
2023-04-14T11:36:40.134Z,95469.16
2023-04-14T11:39:16.382Z,95463.75
2023-04-14T11:41:52.475Z,95457.22
2023-04-14T11:44:25.938Z,95462.59
2023-04-14T11:46:58.807Z,95461.06
2023-04-14T11:49:37.078Z,95453.38
2023-04-14T11:52:09.884Z,95444.50
2023-04-14T11:54:42.625Z,95442.56
2023-04-14T11:57:17.561Z,95444.47
2023-04-14T11:59:50.776Z,95434.84
2023-04-14T12:02:23.759Z,95437.94
2023-04-14T12:04:58.825Z,95423.66
2023-04-14T12:07:32.238Z,95424.44
2023-04-14T12:10:05.670Z,95427.13
2023-04-14T12:12:38.455Z,95421.31
2023-04-14T12:15:11.630Z,95425.94
2023-04-14T12:17:44.459Z,95417.06
2023-04-14T12:20:18.834Z,95407.06
2023-04-14T12:22:52.235Z,95408.59
2023-04-14T12:25:24.966Z,95396.28
2023-04-14T12:27:57.822Z,95397.44
2023-04-14T12:30:30.455Z,95389.38
2023-04-14T12:33:07.702Z,95392.44
2023-04-14T12:35:41.863Z,95382.47
2023-04-14T12:38:15.118Z,95379.75
2023-04-14T12:40:48.540Z,95375.53
2023-04-14T12:43:28.639Z,95380.94
2023-04-14T12:46:03.745Z,95374.75
2023-04-14T12:48:40.320Z,95368.97
2023-04-14T12:51:15.107Z,95362.84
2023-04-14T12:53:50.206Z,95358.97
2023-04-14T12:56:23.589Z,95353.94
2023-04-14T12:58:56.226Z,95347.00
2023-04-14T13:01:28.943Z,95347.78
2023-04-14T13:04:01.823Z,95347.75
2023-04-14T13:06:38.903Z,95338.50
2023-04-14T13:09:12.000Z,95331.53
2023-04-14T13:11:44.611Z,95326.53
2023-04-14T13:14:17.628Z,95335.00
2023-04-14T13:16:50.371Z,95329.63
2023-04-14T13:19:23.336Z,95322.69
2023-04-14T13:21:57.498Z,95317.28
2023-04-14T13:24:30.206Z,95308.06
2023-04-14T13:27:03.106Z,95301.13
2023-04-14T13:29:36.265Z,95295.34
2023-04-14T13:32:09.802Z,95291.13
2023-04-14T13:34:43.628Z,95295.41
2023-04-14T13:37:18.113Z,95290.00
2023-04-14T13:39:50.986Z,95290.00
2023-04-14T13:42:23.592Z,95288.09
2023-04-14T13:44:56.500Z,95290.78
2023-04-14T13:47:29.243Z,95288.50
2023-04-14T13:50:02.571Z,95292.72
2023-04-14T13:52:36.882Z,95286.56
2023-04-14T13:55:10.740Z,95282.72
2023-04-14T13:57:43.393Z,95273.09
2023-04-14T14:00:16.466Z,95273.06
2023-04-14T14:02:49.656Z,95276.13
2023-04-14T14:05:22.435Z,95275.00
2023-04-14T14:07:56.976Z,95270.72
2023-04-14T14:10:29.731Z,95273.81
2023-04-14T14:13:02.610Z,95268.00
2023-04-14T14:15:35.947Z,95274.53
2023-04-14T14:18:08.752Z,95260.66
2023-04-14T14:20:41.984Z,95241.75
2023-04-14T14:23:16.251Z,95252.53
2023-04-14T14:25:50.245Z,95245.97
2023-04-14T14:28:23.139Z,95261.00
2023-04-14T14:30:56.132Z,95255.56
2023-04-14T14:33:28.970Z,95250.94
2023-04-14T14:36:01.751Z,95252.47
2023-04-14T14:38:35.793Z,95249.78
2023-04-14T14:41:08.651Z,95247.84
2023-04-14T14:43:41.276Z,95248.97
2023-04-14T14:46:13.991Z,95248.19
2023-04-14T14:48:46.688Z,95247.81
2023-04-14T14:51:19.465Z,95241.59
2023-04-14T14:54:01.516Z,95252.78
2023-04-14T14:56:41.293Z,95241.19
2023-04-14T14:59:14.284Z,95244.66
2023-04-14T15:01:47.417Z,95244.66
2023-04-14T15:04:20.360Z,95238.88
2023-04-14T15:06:53.115Z,95241.59
2023-04-14T15:09:27.240Z,95242.75
2023-04-14T15:12:00.071Z,95240.44
2023-04-14T15:14:32.740Z,95248.16
2023-04-14T15:17:05.427Z,95240.47
2023-04-14T15:19:38.256Z,95247.03
2023-04-14T15:22:10.936Z,95241.63
2023-04-14T15:24:44.978Z,95236.63
2023-04-14T15:27:17.609Z,95247.06
2023-04-14T15:29:50.586Z,95250.53
2023-04-14T15:32:26.570Z,95238.22
2023-04-14T15:34:59.265Z,95242.06
2023-04-14T15:37:32.268Z,95239.03
2023-04-14T15:40:06.958Z,95240.56
2023-04-14T15:42:39.610Z,95235.97
2023-04-14T15:45:12.679Z,95228.28
2023-04-14T15:47:46.295Z,95229.88
2023-04-14T15:50:19.312Z,95227.19
2023-04-14T15:52:52.196Z,95229.16
2023-04-14T15:55:26.545Z,95229.97
2023-04-14T15:57:59.655Z,95226.13
2023-04-14T16:00:32.821Z,95233.09
2023-04-14T16:03:05.702Z,95222.66
2023-04-14T16:05:38.480Z,95228.03
2023-04-14T16:08:11.429Z,95231.50
2023-04-14T16:10:45.560Z,95226.13
2023-04-14T16:13:18.253Z,95228.44
2023-04-14T16:15:50.981Z,95234.97
2023-04-14T16:18:23.916Z,95228.03
2023-04-14T16:20:56.585Z,95228.00
2023-04-14T16:23:29.502Z,95226.44
2023-04-14T16:26:04.051Z,95231.03
2023-04-14T16:28:36.866Z,95231.81
2023-04-14T16:31:09.534Z,95227.19
2023-04-14T16:33:42.281Z,95233.28
2023-04-14T16:36:15.013Z,95234.00
2023-04-14T16:38:49.258Z,95234.38
2023-04-14T16:41:23.469Z,95231.66
2023-04-14T16:43:56.166Z,95228.56
2023-04-14T16:46:28.861Z,95230.44
2023-04-14T16:49:01.935Z,95232.38
2023-04-14T16:51:34.766Z,95225.78
2023-04-14T16:54:07.551Z,95220.38
2023-04-14T16:56:41.716Z,95228.03
2023-04-14T16:59:14.372Z,95230.69
2023-04-14T17:01:47.173Z,95237.53
2023-04-14T17:04:20.262Z,95224.06
2023-04-14T17:06:53.181Z,95225.56
2023-04-14T17:09:26.173Z,95222.84
2023-04-14T17:12:00.584Z,95228.94
2023-04-14T17:14:34.427Z,95231.97
2023-04-14T17:17:07.871Z,95223.09
2023-04-14T17:19:40.932Z,95229.97
2023-04-14T17:22:15.254Z,95225.66
2023-04-14T17:24:47.918Z,95212.16
2023-04-14T17:27:22.308Z,95225.56
2023-04-14T17:29:55.131Z,95224.72
2023-04-14T17:32:28.031Z,95225.41
2023-04-14T17:35:00.817Z,95225.78
2023-04-14T17:37:33.953Z,95222.25
2023-04-14T17:40:08.212Z,95224.47
2023-04-14T17:42:42.344Z,95232.88
2023-04-14T17:45:21.539Z,95224.00
2023-04-14T17:47:54.779Z,95230.84
2023-04-14T17:50:27.682Z,95230.00
2023-04-14T17:53:00.415Z,95230.66
2023-04-14T17:55:33.152Z,95228.69
2023-04-14T17:58:07.133Z,95233.19
2023-04-14T18:00:40.227Z,95234.25
2023-04-14T18:03:14.531Z,95229.59
2023-04-14T18:05:48.396Z,95221.06
2023-04-14T18:08:21.051Z,95232.44
2023-04-14T18:10:53.688Z,95231.16
2023-04-14T18:13:28.420Z,95226.06
2023-04-14T18:16:01.400Z,95236.66
2023-04-14T18:18:34.148Z,95229.63
2023-04-14T18:21:08.040Z,95238.28
2023-04-14T18:23:40.748Z,95244.66
2023-04-14T18:28:51.636Z,95248.53
2023-04-14T18:31:25.243Z,95251.44
2023-04-14T18:34:02.900Z,95242.81
2023-04-14T18:36:36.562Z,95245.28
2023-04-14T18:39:09.177Z,95248.94
2023-04-14T18:41:41.884Z,95253.66
2023-04-14T18:44:17.058Z,95248.09
2023-04-14T18:46:49.915Z,95260.91
2023-04-14T18:49:22.809Z,95263.38
2023-04-14T18:51:55.876Z,95261.63
2023-04-14T18:54:28.604Z,95266.41
2023-04-14T18:57:01.321Z,95273.84
2023-04-14T18:59:36.176Z,95268.28
2023-04-14T19:02:13.593Z,95274.59
2023-04-14T19:04:46.615Z,95269.78
2023-04-14T19:07:19.567Z,95273.41
2023-04-14T19:09:53.031Z,95268.28
2023-04-14T19:12:28.617Z,95263.91
2023-04-14T19:15:03.545Z,95270.19
2023-04-14T19:17:36.462Z,95273.47
2023-04-14T19:20:09.743Z,95266.44
2023-04-14T19:22:42.445Z,95270.13
2023-04-14T19:25:15.607Z,95271.50
2023-04-14T19:27:48.287Z,95279.78
2023-04-14T19:30:22.887Z,95267.03
2023-04-14T19:32:55.561Z,95270.72
2023-04-14T19:35:28.263Z,95273.28
2023-04-14T19:38:01.267Z,95265.19
2023-04-14T19:40:34.151Z,95263.91
2023-04-14T19:43:07.082Z,95270.38
2023-04-14T19:45:49.690Z,95267.59
2023-04-14T19:48:24.311Z,95261.41
2023-04-14T19:50:57.920Z,95266.31
2023-04-14T19:53:30.861Z,95266.97
2023-04-14T19:56:05.568Z,95260.03
2023-04-14T19:58:38.258Z,95263.81
2023-04-14T20:01:12.967Z,95262.94
2023-04-14T20:04:06.328Z,95256.41
2023-04-14T20:06:39.475Z,95263.19
2023-04-14T20:09:12.291Z,95263.06
2023-04-14T20:11:45.646Z,95253.91
2023-04-14T20:14:18.459Z,95262.56
2023-04-14T20:16:52.554Z,95258.69
2023-04-14T20:19:25.279Z,95259.00
2023-04-14T20:21:58.061Z,95262.38
2023-04-14T20:24:30.785Z,95256.94
2023-04-14T20:27:04.372Z,95261.84
2023-04-14T20:29:37.116Z,95255.66
2023-04-14T20:32:11.544Z,95263.19
2023-04-14T20:34:44.303Z,95258.53
2023-04-14T20:37:18.270Z,95263.00
2023-04-14T20:39:52.660Z,95254.91
2023-04-14T20:42:26.096Z,95260.16
2023-04-14T20:44:58.933Z,95252.06
2023-04-14T20:47:33.184Z,95259.59
2023-04-14T20:50:06.578Z,95257.97
2023-04-14T20:52:39.737Z,95257.53
2023-04-14T20:55:13.537Z,95252.88
2023-04-14T20:57:46.504Z,95255.88
2023-04-14T21:00:19.232Z,95262.66
2023-04-14T21:02:53.866Z,95263.31
2023-04-14T21:05:26.924Z,95259.47
2023-04-14T21:07:59.752Z,95259.78
2023-04-14T21:10:32.438Z,95260.13
2023-04-14T21:15:40.331Z,95264.69
2023-04-14T21:15:59.807Z,95263.44
2023-04-14T21:18:34.114Z,95264.13
2023-04-14T21:21:06.796Z,95255.72
2023-04-14T21:23:39.503Z,95272.78
2023-04-14T21:26:13.324Z,95267.78
2023-04-14T21:28:46.166Z,95268.47
2023-04-14T21:31:19.027Z,95266.16
2023-04-14T21:33:53.082Z,95266.03
2023-04-14T21:36:26.095Z,95265.59
2023-04-14T21:38:58.799Z,95265.94
2023-04-14T21:41:32.628Z,95263.19
2023-04-14T21:44:05.257Z,95260.41
2023-04-14T21:46:37.906Z,95256.53
2023-04-14T21:49:12.497Z,95259.09
2023-04-14T21:51:45.528Z,95250.97
2023-04-14T21:54:18.212Z,95255.44
2023-04-14T21:56:51.361Z,95258.31
2023-04-14T21:59:24.352Z,95257.44
2023-04-14T22:01:57.563Z,95259.66
2023-04-14T22:04:36.507Z,95264.44
2023-04-14T22:07:09.526Z,95273.50
2023-04-14T22:09:44.231Z,95266.19
2023-04-14T22:12:17.155Z,95264.22
2023-04-14T22:14:49.928Z,95267.06
2023-04-14T22:17:22.873Z,95270.06
2023-04-14T22:19:58.184Z,95271.03
2023-04-14T22:22:30.898Z,95266.81
2023-04-14T22:25:03.993Z,95267.47
2023-04-14T22:27:37.010Z,95269.25
2023-04-14T22:30:10.896Z,95276.00
2023-04-14T22:32:43.608Z,95269.47
2023-04-14T22:35:17.596Z,95272.81
2023-04-14T22:37:50.602Z,95280.31
2023-04-14T22:40:23.338Z,95279.44
2023-04-14T22:42:56.347Z,95282.31
2023-04-14T22:45:29.065Z,95279.53
2023-04-14T22:48:02.459Z,95285.81
2023-04-14T22:50:37.108Z,95295.22
2023-04-14T22:53:09.806Z,95282.47
2023-04-14T22:55:43.501Z,95289.22
2023-04-14T22:58:18.866Z,95293.66
2023-04-14T23:00:51.868Z,95288.88
2023-04-14T23:03:24.703Z,95297.03
2023-04-14T23:06:00.122Z,95295.38
2023-04-14T23:08:33.014Z,95296.66
2023-04-14T23:11:06.137Z,95298.75
2023-04-14T23:13:38.963Z,95304.59
2023-04-14T23:16:11.841Z,95300.13
2023-04-14T23:18:49.495Z,95311.72
2023-04-14T23:21:23.624Z,95307.25
2023-04-14T23:23:56.533Z,95302.16
2023-04-14T23:26:29.569Z,95307.19
2023-04-14T23:29:02.803Z,95306.16
2023-04-14T23:31:35.957Z,95306.66
2023-04-14T23:34:11.076Z,95303.75
2023-04-14T23:36:46.563Z,95297.88
2023-04-14T23:39:19.699Z,95304.78
2023-04-14T23:41:52.405Z,95301.50
2023-04-14T23:44:25.615Z,95304.38
2023-04-14T23:46:58.339Z,95294.25
2023-04-14T23:49:34.422Z,95298.97
2023-04-14T23:52:09.629Z,95292.28
2023-04-14T23:54:42.710Z,95282.19
2023-04-14T23:57:15.381Z,95283.91
2023-04-14T23:59:48.083Z,95287.06
